sensor_id;sensor_type;location;lat;lon;timestamp;P1;durP1;ratioP1;P2;durP2;ratioP2
691;SDS011;70475;50.084;8.576;2024-02-21T00:00:57;1.90;;;1.70;;
691;SDS011;70475;50.084;8.576;2024-02-21T00:03:25;3.70;;;2.47;;
691;SDS011;70475;50.084;8.576;2024-02-21T00:05:52;2.50;;;2.00;;
691;SDS011;70475;50.084;8.576;2024-02-21T00:08:21;6.90;;;2.17;;
691;SDS011;70475;50.084;8.576;2024-02-21T00:10:49;3.00;;;1.90;;
691;SDS011;70475;50.084;8.576;2024-02-21T00:13:17;4.77;;;1.93;;
691;SDS011;70475;50.084;8.576;2024-02-21T00:15:44;4.20;;;2.33;;
691;SDS011;70475;50.084;8.576;2024-02-21T00:18:12;4.33;;;1.60;;
691;SDS011;70475;50.084;8.576;2024-02-21T00:20:40;3.53;;;2.17;;
691;SDS011;70475;50.084;8.576;2024-02-21T00:23:07;12.47;;;3.43;;
691;SDS011;70475;50.084;8.576;2024-02-21T00:25:36;4.37;;;2.50;;
691;SDS011;70475;50.084;8.576;2024-02-21T00:28:04;8.07;;;2.33;;
691;SDS011;70475;50.084;8.576;2024-02-21T00:30:32;5.60;;;2.50;;
691;SDS011;70475;50.084;8.576;2024-02-21T00:33:00;4.17;;;3.50;;
691;SDS011;70475;50.084;8.576;2024-02-21T00:35:27;10.60;;;3.63;;
691;SDS011;70475;50.084;8.576;2024-02-21T00:37:55;4.10;;;1.97;;
691;SDS011;70475;50.084;8.576;2024-02-21T00:40:23;3.07;;;1.83;;
691;SDS011;70475;50.084;8.576;2024-02-21T00:42:52;3.90;;;2.10;;
691;SDS011;70475;50.084;8.576;2024-02-21T00:45:20;6.87;;;1.77;;
691;SDS011;70475;50.084;8.576;2024-02-21T00:47:47;3.40;;;2.23;;
691;SDS011;70475;50.084;8.576;2024-02-21T00:50:15;4.83;;;2.40;;
691;SDS011;70475;50.084;8.576;2024-02-21T00:52:42;4.47;;;2.20;;
691;SDS011;70475;50.084;8.576;2024-02-21T00:55:10;6.37;;;2.87;;
691;SDS011;70475;50.084;8.576;2024-02-21T00:57:38;6.63;;;2.80;;
691;SDS011;70475;50.084;8.576;2024-02-21T01:00:08;6.90;;;2.90;;
691;SDS011;70475;50.084;8.576;2024-02-21T01:02:36;4.40;;;3.20;;
691;SDS011;70475;50.084;8.576;2024-02-21T01:05:03;13.03;;;3.47;;
691;SDS011;70475;50.084;8.576;2024-02-21T01:07:31;12.70;;;3.80;;
691;SDS011;70475;50.084;8.576;2024-02-21T01:09:59;3.97;;;2.57;;
691;SDS011;70475;50.084;8.576;2024-02-21T01:12:27;4.97;;;3.30;;
691;SDS011;70475;50.084;8.576;2024-02-21T01:14:54;10.10;;;4.50;;
691;SDS011;70475;50.084;8.576;2024-02-21T01:17:23;5.00;;;2.60;;
691;SDS011;70475;50.084;8.576;2024-02-21T01:19:51;4.27;;;2.47;;
691;SDS011;70475;50.084;8.576;2024-02-21T01:22:18;10.63;;;2.20;;
691;SDS011;70475;50.084;8.576;2024-02-21T01:24:46;3.10;;;2.30;;
691;SDS011;70475;50.084;8.576;2024-02-21T01:27:13;12.63;;;3.03;;
691;SDS011;70475;50.084;8.576;2024-02-21T01:29:41;5.17;;;2.83;;
691;SDS011;70475;50.084;8.576;2024-02-21T01:32:08;8.40;;;3.10;;
691;SDS011;70475;50.084;8.576;2024-02-21T01:34:37;10.30;;;3.70;;
691;SDS011;70475;50.084;8.576;2024-02-21T01:37:05;6.47;;;2.50;;
691;SDS011;70475;50.084;8.576;2024-02-21T01:39:33;13.97;;;2.60;;
691;SDS011;70475;50.084;8.576;2024-02-21T01:42:01;4.27;;;2.47;;
691;SDS011;70475;50.084;8.576;2024-02-21T01:44:29;3.83;;;2.50;;
691;SDS011;70475;50.084;8.576;2024-02-21T01:46:57;16.43;;;2.77;;
691;SDS011;70475;50.084;8.576;2024-02-21T01:49:25;13.60;;;3.20;;
691;SDS011;70475;50.084;8.576;2024-02-21T01:51:54;4.40;;;3.13;;
691;SDS011;70475;50.084;8.576;2024-02-21T01:54:22;11.00;;;4.63;;
691;SDS011;70475;50.084;8.576;2024-02-21T01:56:50;3.53;;;2.63;;
691;SDS011;70475;50.084;8.576;2024-02-21T01:59:18;6.20;;;2.33;;
691;SDS011;70475;50.084;8.576;2024-02-21T02:01:46;2.67;;;2.03;;
691;SDS011;70475;50.084;8.576;2024-02-21T02:04:14;2.40;;;1.87;;
691;SDS011;70475;50.084;8.576;2024-02-21T02:06:42;6.03;;;2.43;;
691;SDS011;70475;50.084;8.576;2024-02-21T02:09:11;3.10;;;2.20;;
691;SDS011;70475;50.084;8.576;2024-02-21T02:11:39;3.20;;;1.97;;
691;SDS011;70475;50.084;8.576;2024-02-21T02:14:06;4.93;;;2.30;;
691;SDS011;70475;50.084;8.576;2024-02-21T02:16:34;4.33;;;3.23;;
691;SDS011;70475;50.084;8.576;2024-02-21T02:19:02;3.77;;;2.63;;
691;SDS011;70475;50.084;8.576;2024-02-21T02:21:30;12.73;;;2.07;;
691;SDS011;70475;50.084;8.576;2024-02-21T02:24:03;6.50;;;3.20;;
691;SDS011;70475;50.084;8.576;2024-02-21T02:26:32;10.03;;;2.27;;
691;SDS011;70475;50.084;8.576;2024-02-21T02:29:01;9.57;;;3.33;;
691;SDS011;70475;50.084;8.576;2024-02-21T02:31:29;5.97;;;2.10;;
691;SDS011;70475;50.084;8.576;2024-02-21T02:33:56;7.10;;;2.37;;
691;SDS011;70475;50.084;8.576;2024-02-21T02:36:26;8.17;;;2.30;;
691;SDS011;70475;50.084;8.576;2024-02-21T02:38:53;6.67;;;2.60;;
691;SDS011;70475;50.084;8.576;2024-02-21T02:41:22;2.90;;;1.87;;
691;SDS011;70475;50.084;8.576;2024-02-21T02:43:50;3.80;;;2.57;;
691;SDS011;70475;50.084;8.576;2024-02-21T02:46:17;5.20;;;3.03;;
691;SDS011;70475;50.084;8.576;2024-02-21T02:48:45;6.43;;;2.70;;
691;SDS011;70475;50.084;8.576;2024-02-21T02:51:12;5.23;;;2.67;;
691;SDS011;70475;50.084;8.576;2024-02-21T02:53:40;10.60;;;2.30;;
691;SDS011;70475;50.084;8.576;2024-02-21T02:56:13;4.90;;;2.13;;
691;SDS011;70475;50.084;8.576;2024-02-21T02:58:43;4.83;;;2.40;;
691;SDS011;70475;50.084;8.576;2024-02-21T03:01:10;4.00;;;2.97;;
691;SDS011;70475;50.084;8.576;2024-02-21T03:03:38;7.63;;;3.00;;
691;SDS011;70475;50.084;8.576;2024-02-21T03:06:06;7.57;;;2.77;;
691;SDS011;70475;50.084;8.576;2024-02-21T03:08:33;6.73;;;2.50;;
691;SDS011;70475;50.084;8.576;2024-02-21T03:11:01;4.60;;;2.73;;
691;SDS011;70475;50.084;8.576;2024-02-21T03:13:29;3.70;;;2.70;;
691;SDS011;70475;50.084;8.576;2024-02-21T03:15:58;3.20;;;2.30;;
691;SDS011;70475;50.084;8.576;2024-02-21T03:18:25;5.40;;;3.07;;
691;SDS011;70475;50.084;8.576;2024-02-21T03:20:53;12.83;;;3.40;;
691;SDS011;70475;50.084;8.576;2024-02-21T03:23:20;4.23;;;2.40;;
691;SDS011;70475;50.084;8.576;2024-02-21T03:25:48;4.07;;;3.67;;
691;SDS011;70475;50.084;8.576;2024-02-21T03:28:16;3.67;;;2.73;;
691;SDS011;70475;50.084;8.576;2024-02-21T03:30:44;6.20;;;4.40;;
691;SDS011;70475;50.084;8.576;2024-02-21T03:33:13;9.43;;;2.90;;
691;SDS011;70475;50.084;8.576;2024-02-21T03:35:40;5.13;;;2.70;;
691;SDS011;70475;50.084;8.576;2024-02-21T03:38:08;3.07;;;2.30;;
691;SDS011;70475;50.084;8.576;2024-02-21T03:40:35;5.13;;;3.17;;
691;SDS011;70475;50.084;8.576;2024-02-21T03:43:03;4.77;;;2.73;;
691;SDS011;70475;50.084;8.576;2024-02-21T03:45:31;3.80;;;2.77;;
691;SDS011;70475;50.084;8.576;2024-02-21T03:47:58;5.20;;;3.07;;
691;SDS011;70475;50.084;8.576;2024-02-21T03:50:27;7.67;;;3.07;;
691;SDS011;70475;50.084;8.576;2024-02-21T03:52:55;6.40;;;3.43;;
691;SDS011;70475;50.084;8.576;2024-02-21T03:55:23;21.00;;;6.03;;
691;SDS011;70475;50.084;8.576;2024-02-21T03:57:51;9.40;;;2.90;;
691;SDS011;70475;50.084;8.576;2024-02-21T04:00:18;4.47;;;3.40;;
691;SDS011;70475;50.084;8.576;2024-02-21T04:02:46;3.47;;;1.87;;
691;SDS011;70475;50.084;8.576;2024-02-21T04:05:15;4.00;;;2.80;;
691;SDS011;70475;50.084;8.576;2024-02-21T04:07:44;3.40;;;2.50;;
691;SDS011;70475;50.084;8.576;2024-02-21T04:10:12;6.47;;;2.90;;
691;SDS011;70475;50.084;8.576;2024-02-21T04:12:39;4.10;;;3.17;;
691;SDS011;70475;50.084;8.576;2024-02-21T04:15:07;6.90;;;3.67;;
691;SDS011;70475;50.084;8.576;2024-02-21T04:17:36;7.87;;;3.33;;
691;SDS011;70475;50.084;8.576;2024-02-21T04:20:04;5.57;;;4.03;;
691;SDS011;70475;50.084;8.576;2024-02-21T04:22:34;6.37;;;3.27;;
691;SDS011;70475;50.084;8.576;2024-02-21T04:25:03;4.80;;;2.90;;
691;SDS011;70475;50.084;8.576;2024-02-21T04:27:31;10.73;;;4.37;;
691;SDS011;70475;50.084;8.576;2024-02-21T04:29:59;17.10;;;5.10;;
691;SDS011;70475;50.084;8.576;2024-02-21T04:32:27;7.87;;;3.60;;
691;SDS011;70475;50.084;8.576;2024-02-21T04:34:55;10.57;;;5.67;;
691;SDS011;70475;50.084;8.576;2024-02-21T04:37:22;6.30;;;4.37;;
691;SDS011;70475;50.084;8.576;2024-02-21T04:39:50;9.53;;;3.13;;
691;SDS011;70475;50.084;8.576;2024-02-21T04:42:19;8.60;;;4.53;;
691;SDS011;70475;50.084;8.576;2024-02-21T04:44:47;8.53;;;2.53;;
691;SDS011;70475;50.084;8.576;2024-02-21T04:47:14;6.80;;;3.97;;
691;SDS011;70475;50.084;8.576;2024-02-21T04:49:42;11.07;;;4.20;;
691;SDS011;70475;50.084;8.576;2024-02-21T04:52:10;7.47;;;4.37;;
691;SDS011;70475;50.084;8.576;2024-02-21T04:54:37;4.90;;;3.57;;
691;SDS011;70475;50.084;8.576;2024-02-21T04:57:05;6.30;;;4.10;;
691;SDS011;70475;50.084;8.576;2024-02-21T04:59:34;5.03;;;3.53;;
691;SDS011;70475;50.084;8.576;2024-02-21T05:02:02;4.40;;;3.90;;
691;SDS011;70475;50.084;8.576;2024-02-21T05:04:30;5.70;;;2.47;;
691;SDS011;70475;50.084;8.576;2024-02-21T05:06:57;5.33;;;2.27;;
691;SDS011;70475;50.084;8.576;2024-02-21T05:09:27;4.33;;;2.93;;
691;SDS011;70475;50.084;8.576;2024-02-21T05:11:54;5.10;;;2.40;;
691;SDS011;70475;50.084;8.576;2024-02-21T05:14:22;5.57;;;4.00;;
691;SDS011;70475;50.084;8.576;2024-02-21T05:16:51;5.83;;;2.83;;
691;SDS011;70475;50.084;8.576;2024-02-21T05:19:19;4.70;;;2.87;;
691;SDS011;70475;50.084;8.576;2024-02-21T05:21:47;4.30;;;3.70;;
691;SDS011;70475;50.084;8.576;2024-02-21T05:24:14;9.00;;;3.73;;
691;SDS011;70475;50.084;8.576;2024-02-21T05:26:42;10.20;;;3.73;;
691;SDS011;70475;50.084;8.576;2024-02-21T05:29:09;9.00;;;2.67;;
691;SDS011;70475;50.084;8.576;2024-02-21T05:31:55;7.10;;;2.77;;
691;SDS011;70475;50.084;8.576;2024-02-21T05:34:24;10.00;;;3.40;;
691;SDS011;70475;50.084;8.576;2024-02-21T05:36:52;3.50;;;2.40;;
691;SDS011;70475;50.084;8.576;2024-02-21T05:39:20;5.83;;;3.20;;
691;SDS011;70475;50.084;8.576;2024-02-21T05:41:49;4.43;;;3.57;;
691;SDS011;70475;50.084;8.576;2024-02-21T05:44:17;4.27;;;3.63;;
691;SDS011;70475;50.084;8.576;2024-02-21T05:46:45;10.53;;;3.90;;
691;SDS011;70475;50.084;8.576;2024-02-21T05:49:14;2.93;;;1.97;;
691;SDS011;70475;50.084;8.576;2024-02-21T05:51:42;7.83;;;2.77;;
691;SDS011;70475;50.084;8.576;2024-02-21T05:54:10;3.00;;;2.40;;
691;SDS011;70475;50.084;8.576;2024-02-21T05:56:37;9.00;;;3.63;;
691;SDS011;70475;50.084;8.576;2024-02-21T05:59:05;10.00;;;3.30;;
691;SDS011;70475;50.084;8.576;2024-02-21T06:01:32;6.30;;;5.03;;
691;SDS011;70475;50.084;8.576;2024-02-21T06:04:00;8.83;;;4.90;;
691;SDS011;70475;50.084;8.576;2024-02-21T06:06:29;8.67;;;4.60;;
691;SDS011;70475;50.084;8.576;2024-02-21T06:08:57;16.90;;;3.83;;
691;SDS011;70475;50.084;8.576;2024-02-21T06:11:25;7.00;;;3.77;;
691;SDS011;70475;50.084;8.576;2024-02-21T06:13:52;10.73;;;2.77;;
691;SDS011;70475;50.084;8.576;2024-02-21T06:16:20;6.57;;;4.03;;
691;SDS011;70475;50.084;8.576;2024-02-21T06:18:48;11.70;;;3.10;;
691;SDS011;70475;50.084;8.576;2024-02-21T06:21:16;3.70;;;2.63;;
691;SDS011;70475;50.084;8.576;2024-02-21T06:23:45;7.10;;;2.70;;
691;SDS011;70475;50.084;8.576;2024-02-21T06:26:12;6.93;;;3.23;;
691;SDS011;70475;50.084;8.576;2024-02-21T06:28:40;4.50;;;2.30;;
691;SDS011;70475;50.084;8.576;2024-02-21T06:31:07;7.43;;;4.30;;
691;SDS011;70475;50.084;8.576;2024-02-21T06:33:35;6.50;;;3.50;;
691;SDS011;70475;50.084;8.576;2024-02-21T06:36:03;4.87;;;2.50;;
691;SDS011;70475;50.084;8.576;2024-02-21T06:38:31;13.40;;;3.60;;
691;SDS011;70475;50.084;8.576;2024-02-21T06:41:01;8.27;;;3.50;;
691;SDS011;70475;50.084;8.576;2024-02-21T06:43:30;8.47;;;3.77;;
691;SDS011;70475;50.084;8.576;2024-02-21T06:46:01;11.80;;;3.27;;
691;SDS011;70475;50.084;8.576;2024-02-21T06:48:29;6.33;;;3.73;;
691;SDS011;70475;50.084;8.576;2024-02-21T06:50:57;4.00;;;3.13;;
691;SDS011;70475;50.084;8.576;2024-02-21T06:53:24;5.57;;;3.33;;
691;SDS011;70475;50.084;8.576;2024-02-21T06:55:51;8.40;;;3.57;;
691;SDS011;70475;50.084;8.576;2024-02-21T06:58:20;8.50;;;3.17;;
691;SDS011;70475;50.084;8.576;2024-02-21T07:00:48;5.40;;;3.10;;
691;SDS011;70475;50.084;8.576;2024-02-21T07:03:16;3.80;;;2.67;;
691;SDS011;70475;50.084;8.576;2024-02-21T07:05:43;10.93;;;3.00;;
691;SDS011;70475;50.084;8.576;2024-02-21T07:08:11;5.27;;;4.23;;
691;SDS011;70475;50.084;8.576;2024-02-21T07:10:39;6.47;;;4.43;;
691;SDS011;70475;50.084;8.576;2024-02-21T07:13:07;6.83;;;3.53;;
691;SDS011;70475;50.084;8.576;2024-02-21T07:15:35;9.23;;;3.67;;
691;SDS011;70475;50.084;8.576;2024-02-21T07:18:04;12.53;;;5.10;;
691;SDS011;70475;50.084;8.576;2024-02-21T07:20:31;10.10;;;4.33;;
691;SDS011;70475;50.084;8.576;2024-02-21T07:22:59;8.17;;;4.73;;
691;SDS011;70475;50.084;8.576;2024-02-21T07:25:27;5.83;;;3.33;;
691;SDS011;70475;50.084;8.576;2024-02-21T07:27:55;7.43;;;4.30;;
691;SDS011;70475;50.084;8.576;2024-02-21T07:30:23;6.40;;;3.30;;
691;SDS011;70475;50.084;8.576;2024-02-21T07:32:52;4.80;;;3.00;;
691;SDS011;70475;50.084;8.576;2024-02-21T07:35:19;4.23;;;3.30;;
691;SDS011;70475;50.084;8.576;2024-02-21T07:37:47;3.47;;;2.83;;
691;SDS011;70475;50.084;8.576;2024-02-21T07:40:15;5.30;;;3.03;;
691;SDS011;70475;50.084;8.576;2024-02-21T07:42:44;6.83;;;4.40;;
691;SDS011;70475;50.084;8.576;2024-02-21T07:45:17;4.20;;;2.63;;
691;SDS011;70475;50.084;8.576;2024-02-21T07:47:48;3.50;;;2.70;;
691;SDS011;70475;50.084;8.576;2024-02-21T07:50:17;5.33;;;2.83;;
691;SDS011;70475;50.084;8.576;2024-02-21T07:52:44;7.53;;;3.80;;
691;SDS011;70475;50.084;8.576;2024-02-21T07:55:12;6.97;;;2.57;;
691;SDS011;70475;50.084;8.576;2024-02-21T07:57:40;2.63;;;1.83;;
691;SDS011;70475;50.084;8.576;2024-02-21T08:00:08;9.40;;;2.87;;
691;SDS011;70475;50.084;8.576;2024-02-21T08:02:41;2.97;;;2.60;;
691;SDS011;70475;50.084;8.576;2024-02-21T08:05:10;4.50;;;2.53;;
691;SDS011;70475;50.084;8.576;2024-02-21T08:07:40;10.17;;;2.43;;
691;SDS011;70475;50.084;8.576;2024-02-21T08:10:08;3.80;;;2.03;;
691;SDS011;70475;50.084;8.576;2024-02-21T08:12:35;3.23;;;2.37;;
691;SDS011;70475;50.084;8.576;2024-02-21T08:15:04;3.90;;;2.83;;
691;SDS011;70475;50.084;8.576;2024-02-21T08:17:32;7.00;;;2.23;;
691;SDS011;70475;50.084;8.576;2024-02-21T08:20:00;9.70;;;2.07;;
691;SDS011;70475;50.084;8.576;2024-02-21T08:22:28;5.00;;;3.00;;
691;SDS011;70475;50.084;8.576;2024-02-21T08:24:58;3.30;;;2.13;;
691;SDS011;70475;50.084;8.576;2024-02-21T08:27:25;3.70;;;2.50;;
691;SDS011;70475;50.084;8.576;2024-02-21T08:29:53;1.87;;;1.70;;
691;SDS011;70475;50.084;8.576;2024-02-21T08:32:20;2.90;;;1.90;;
691;SDS011;70475;50.084;8.576;2024-02-21T08:34:48;3.37;;;1.90;;
691;SDS011;70475;50.084;8.576;2024-02-21T08:37:16;6.63;;;2.90;;
691;SDS011;70475;50.084;8.576;2024-02-21T08:39:47;4.20;;;1.70;;
691;SDS011;70475;50.084;8.576;2024-02-21T08:42:15;6.53;;;2.20;;
691;SDS011;70475;50.084;8.576;2024-02-21T08:44:44;7.20;;;2.33;;
691;SDS011;70475;50.084;8.576;2024-02-21T08:47:11;3.00;;;1.77;;
691;SDS011;70475;50.084;8.576;2024-02-21T08:49:39;5.80;;;2.67;;
691;SDS011;70475;50.084;8.576;2024-02-21T08:52:07;3.00;;;1.60;;
691;SDS011;70475;50.084;8.576;2024-02-21T08:54:34;7.27;;;1.93;;
691;SDS011;70475;50.084;8.576;2024-02-21T08:57:02;2.97;;;1.30;;
691;SDS011;70475;50.084;8.576;2024-02-21T08:59:31;3.17;;;1.63;;
691;SDS011;70475;50.084;8.576;2024-02-21T09:02:00;1.90;;;1.60;;
691;SDS011;70475;50.084;8.576;2024-02-21T09:04:28;4.87;;;2.10;;
691;SDS011;70475;50.084;8.576;2024-02-21T09:06:57;4.87;;;1.80;;
691;SDS011;70475;50.084;8.576;2024-02-21T09:09:25;2.60;;;1.70;;
691;SDS011;70475;50.084;8.576;2024-02-21T09:11:55;3.33;;;2.00;;
691;SDS011;70475;50.084;8.576;2024-02-21T09:14:23;5.43;;;2.07;;
691;SDS011;70475;50.084;8.576;2024-02-21T09:16:52;2.07;;;1.20;;
691;SDS011;70475;50.084;8.576;2024-02-21T09:19:21;3.20;;;1.93;;
691;SDS011;70475;50.084;8.576;2024-02-21T09:21:49;3.20;;;1.37;;
691;SDS011;70475;50.084;8.576;2024-02-21T09:24:17;2.27;;;1.73;;
691;SDS011;70475;50.084;8.576;2024-02-21T09:26:45;2.93;;;2.30;;
691;SDS011;70475;50.084;8.576;2024-02-21T09:29:12;3.40;;;2.27;;
691;SDS011;70475;50.084;8.576;2024-02-21T09:31:42;4.87;;;2.23;;
691;SDS011;70475;50.084;8.576;2024-02-21T09:34:11;4.47;;;1.87;;
691;SDS011;70475;50.084;8.576;2024-02-21T09:36:38;4.03;;;1.80;;
691;SDS011;70475;50.084;8.576;2024-02-21T09:39:06;4.37;;;1.87;;
691;SDS011;70475;50.084;8.576;2024-02-21T09:41:36;4.50;;;1.50;;
691;SDS011;70475;50.084;8.576;2024-02-21T09:44:09;6.03;;;1.70;;
691;SDS011;70475;50.084;8.576;2024-02-21T09:46:40;1.90;;;1.17;;
691;SDS011;70475;50.084;8.576;2024-02-21T09:49:17;9.73;;;1.93;;
691;SDS011;70475;50.084;8.576;2024-02-21T09:51:53;3.30;;;1.87;;
691;SDS011;70475;50.084;8.576;2024-02-21T09:54:22;6.97;;;2.20;;
691;SDS011;70475;50.084;8.576;2024-02-21T09:56:50;6.60;;;1.70;;
691;SDS011;70475;50.084;8.576;2024-02-21T09:59:18;2.73;;;1.50;;
691;SDS011;70475;50.084;8.576;2024-02-21T10:01:46;2.57;;;1.97;;
691;SDS011;70475;50.084;8.576;2024-02-21T10:04:15;5.33;;;2.20;;
691;SDS011;70475;50.084;8.576;2024-02-21T10:06:43;5.63;;;1.63;;
691;SDS011;70475;50.084;8.576;2024-02-21T10:09:19;1.83;;;1.40;;
691;SDS011;70475;50.084;8.576;2024-02-21T10:11:49;8.50;;;2.80;;
691;SDS011;70475;50.084;8.576;2024-02-21T10:14:17;1.90;;;1.17;;
691;SDS011;70475;50.084;8.576;2024-02-21T10:16:45;2.80;;;1.33;;
691;SDS011;70475;50.084;8.576;2024-02-21T10:19:18;7.30;;;2.40;;
691;SDS011;70475;50.084;8.576;2024-02-21T10:22:03;1.50;;;1.30;;
691;SDS011;70475;50.084;8.576;2024-02-21T10:24:31;3.43;;;2.10;;
691;SDS011;70475;50.084;8.576;2024-02-21T10:27:01;4.10;;;1.90;;
691;SDS011;70475;50.084;8.576;2024-02-21T10:29:30;9.07;;;2.23;;
691;SDS011;70475;50.084;8.576;2024-02-21T10:32:05;4.10;;;2.27;;
691;SDS011;70475;50.084;8.576;2024-02-21T10:34:35;3.43;;;1.37;;
691;SDS011;70475;50.084;8.576;2024-02-21T10:37:03;3.07;;;1.00;;
691;SDS011;70475;50.084;8.576;2024-02-21T10:39:32;7.30;;;3.70;;
691;SDS011;70475;50.084;8.576;2024-02-21T10:42:02;7.93;;;2.40;;
691;SDS011;70475;50.084;8.576;2024-02-21T10:44:31;7.17;;;2.57;;
691;SDS011;70475;50.084;8.576;2024-02-21T10:46:59;5.93;;;2.20;;
691;SDS011;70475;50.084;8.576;2024-02-21T10:49:36;6.70;;;1.80;;
691;SDS011;70475;50.084;8.576;2024-02-21T10:52:09;4.17;;;2.00;;
691;SDS011;70475;50.084;8.576;2024-02-21T10:54:44;2.23;;;1.50;;
691;SDS011;70475;50.084;8.576;2024-02-21T10:57:13;5.90;;;1.67;;
691;SDS011;70475;50.084;8.576;2024-02-21T10:59:41;3.77;;;2.07;;
691;SDS011;70475;50.084;8.576;2024-02-21T11:02:11;2.93;;;1.87;;
691;SDS011;70475;50.084;8.576;2024-02-21T11:04:41;10.50;;;2.03;;
691;SDS011;70475;50.084;8.576;2024-02-21T11:07:10;4.77;;;1.50;;
691;SDS011;70475;50.084;8.576;2024-02-21T11:09:38;4.43;;;2.37;;
691;SDS011;70475;50.084;8.576;2024-02-21T11:12:06;10.03;;;2.03;;
691;SDS011;70475;50.084;8.576;2024-02-21T11:14:37;1.57;;;1.40;;
691;SDS011;70475;50.084;8.576;2024-02-21T11:17:14;2.30;;;1.70;;
691;SDS011;70475;50.084;8.576;2024-02-21T11:19:43;3.30;;;1.70;;
691;SDS011;70475;50.084;8.576;2024-02-21T11:22:15;5.93;;;3.13;;
691;SDS011;70475;50.084;8.576;2024-02-21T11:24:43;6.90;;;2.27;;
691;SDS011;70475;50.084;8.576;2024-02-21T11:27:12;4.73;;;1.97;;
691;SDS011;70475;50.084;8.576;2024-02-21T11:29:40;5.57;;;1.50;;
691;SDS011;70475;50.084;8.576;2024-02-21T11:32:09;5.90;;;2.40;;
691;SDS011;70475;50.084;8.576;2024-02-21T11:34:38;2.73;;;1.87;;
691;SDS011;70475;50.084;8.576;2024-02-21T11:37:14;4.10;;;1.77;;
691;SDS011;70475;50.084;8.576;2024-02-21T11:39:43;8.10;;;2.57;;
691;SDS011;70475;50.084;8.576;2024-02-21T11:42:12;6.13;;;2.13;;
691;SDS011;70475;50.084;8.576;2024-02-21T11:44:39;3.73;;;1.80;;
691;SDS011;70475;50.084;8.576;2024-02-21T11:47:09;1.70;;;1.13;;
691;SDS011;70475;50.084;8.576;2024-02-21T11:49:37;2.70;;;1.63;;
691;SDS011;70475;50.084;8.576;2024-02-21T11:52:06;2.80;;;2.10;;
691;SDS011;70475;50.084;8.576;2024-02-21T11:54:35;6.40;;;1.73;;
691;SDS011;70475;50.084;8.576;2024-02-21T11:57:02;3.57;;;2.10;;
691;SDS011;70475;50.084;8.576;2024-02-21T11:59:31;4.93;;;1.70;;
691;SDS011;70475;50.084;8.576;2024-02-21T12:01:59;10.83;;;2.33;;
691;SDS011;70475;50.084;8.576;2024-02-21T12:04:29;3.40;;;1.40;;
691;SDS011;70475;50.084;8.576;2024-02-21T12:06:58;2.00;;;1.30;;
691;SDS011;70475;50.084;8.576;2024-02-21T12:09:26;4.93;;;1.90;;
691;SDS011;70475;50.084;8.576;2024-02-21T12:11:59;3.40;;;2.13;;
691;SDS011;70475;50.084;8.576;2024-02-21T12:14:28;5.17;;;1.47;;
691;SDS011;70475;50.084;8.576;2024-02-21T12:16:56;5.47;;;1.87;;
691;SDS011;70475;50.084;8.576;2024-02-21T12:19:24;1.23;;;0.93;;
691;SDS011;70475;50.084;8.576;2024-02-21T12:21:53;3.43;;;1.60;;
691;SDS011;70475;50.084;8.576;2024-02-21T12:24:22;3.40;;;1.63;;
691;SDS011;70475;50.084;8.576;2024-02-21T12:26:50;9.77;;;1.67;;
691;SDS011;70475;50.084;8.576;2024-02-21T12:29:20;4.23;;;1.50;;
691;SDS011;70475;50.084;8.576;2024-02-21T12:31:49;2.90;;;1.63;;
691;SDS011;70475;50.084;8.576;2024-02-21T12:34:16;5.00;;;1.93;;
691;SDS011;70475;50.084;8.576;2024-02-21T12:36:59;1.87;;;1.73;;
691;SDS011;70475;50.084;8.576;2024-02-21T12:39:29;2.47;;;1.23;;
691;SDS011;70475;50.084;8.576;2024-02-21T12:41:58;2.57;;;1.90;;
691;SDS011;70475;50.084;8.576;2024-02-21T12:44:27;3.40;;;1.20;;
691;SDS011;70475;50.084;8.576;2024-02-21T12:46:55;5.83;;;1.57;;
691;SDS011;70475;50.084;8.576;2024-02-21T12:49:22;5.17;;;2.17;;
691;SDS011;70475;50.084;8.576;2024-02-21T12:51:50;4.37;;;1.37;;
691;SDS011;70475;50.084;8.576;2024-02-21T12:54:18;5.07;;;1.47;;
691;SDS011;70475;50.084;8.576;2024-02-21T12:56:46;5.40;;;1.57;;
691;SDS011;70475;50.084;8.576;2024-02-21T12:59:13;5.03;;;1.10;;
691;SDS011;70475;50.084;8.576;2024-02-21T13:01:42;2.20;;;1.90;;
691;SDS011;70475;50.084;8.576;2024-02-21T13:04:10;3.60;;;1.80;;
691;SDS011;70475;50.084;8.576;2024-02-21T13:06:38;4.50;;;2.83;;
691;SDS011;70475;50.084;8.576;2024-02-21T13:09:05;5.23;;;2.73;;
691;SDS011;70475;50.084;8.576;2024-02-21T13:11:37;6.23;;;1.57;;
691;SDS011;70475;50.084;8.576;2024-02-21T13:14:05;4.07;;;2.73;;
691;SDS011;70475;50.084;8.576;2024-02-21T13:16:33;4.17;;;2.10;;
691;SDS011;70475;50.084;8.576;2024-02-21T13:19:07;2.07;;;1.30;;
691;SDS011;70475;50.084;8.576;2024-02-21T13:21:36;5.13;;;2.10;;
691;SDS011;70475;50.084;8.576;2024-02-21T13:24:04;3.37;;;1.20;;
691;SDS011;70475;50.084;8.576;2024-02-21T13:26:31;1.90;;;1.23;;
691;SDS011;70475;50.084;8.576;2024-02-21T13:28:59;3.23;;;1.17;;
691;SDS011;70475;50.084;8.576;2024-02-21T13:31:27;6.83;;;1.70;;
691;SDS011;70475;50.084;8.576;2024-02-21T13:33:54;1.30;;;0.90;;
691;SDS011;70475;50.084;8.576;2024-02-21T13:36:23;5.80;;;1.40;;
691;SDS011;70475;50.084;8.576;2024-02-21T13:38:52;10.13;;;1.87;;
691;SDS011;70475;50.084;8.576;2024-02-21T13:41:19;3.70;;;1.40;;
691;SDS011;70475;50.084;8.576;2024-02-21T13:43:48;1.77;;;1.37;;
691;SDS011;70475;50.084;8.576;2024-02-21T13:46:15;5.30;;;1.57;;
691;SDS011;70475;50.084;8.576;2024-02-21T13:48:43;4.17;;;1.20;;
691;SDS011;70475;50.084;8.576;2024-02-21T13:51:11;2.10;;;1.43;;
691;SDS011;70475;50.084;8.576;2024-02-21T13:53:40;2.60;;;1.03;;
691;SDS011;70475;50.084;8.576;2024-02-21T13:56:08;18.40;;;1.87;;
691;SDS011;70475;50.084;8.576;2024-02-21T13:58:35;2.47;;;1.17;;
691;SDS011;70475;50.084;8.576;2024-02-21T14:01:03;5.87;;;2.10;;
691;SDS011;70475;50.084;8.576;2024-02-21T14:03:31;2.20;;;1.30;;
691;SDS011;70475;50.084;8.576;2024-02-21T14:05:59;2.60;;;1.40;;
691;SDS011;70475;50.084;8.576;2024-02-21T14:08:27;4.87;;;1.00;;
691;SDS011;70475;50.084;8.576;2024-02-21T14:10:56;3.33;;;1.27;;
691;SDS011;70475;50.084;8.576;2024-02-21T14:13:25;2.33;;;0.80;;
691;SDS011;70475;50.084;8.576;2024-02-21T14:15:53;3.07;;;1.13;;
691;SDS011;70475;50.084;8.576;2024-02-21T14:18:20;4.70;;;1.40;;
691;SDS011;70475;50.084;8.576;2024-02-21T14:20:48;5.87;;;1.03;;
691;SDS011;70475;50.084;8.576;2024-02-21T14:23:16;3.00;;;1.20;;
691;SDS011;70475;50.084;8.576;2024-02-21T14:25:43;1.50;;;0.83;;
691;SDS011;70475;50.084;8.576;2024-02-21T14:28:12;4.03;;;1.30;;
691;SDS011;70475;50.084;8.576;2024-02-21T14:30:40;1.63;;;1.10;;
691;SDS011;70475;50.084;8.576;2024-02-21T14:33:08;6.93;;;1.30;;
691;SDS011;70475;50.084;8.576;2024-02-21T14:35:36;4.97;;;1.73;;
691;SDS011;70475;50.084;8.576;2024-02-21T14:38:03;1.20;;;0.80;;
691;SDS011;70475;50.084;8.576;2024-02-21T14:40:31;5.20;;;0.90;;
691;SDS011;70475;50.084;8.576;2024-02-21T14:43:00;5.27;;;1.37;;
691;SDS011;70475;50.084;8.576;2024-02-21T14:45:29;1.23;;;0.80;;
691;SDS011;70475;50.084;8.576;2024-02-21T14:47:57;2.70;;;0.80;;
691;SDS011;70475;50.084;8.576;2024-02-21T14:50:25;2.17;;;1.00;;
691;SDS011;70475;50.084;8.576;2024-02-21T14:52:52;3.47;;;1.03;;
691;SDS011;70475;50.084;8.576;2024-02-21T14:55:20;1.63;;;1.10;;
691;SDS011;70475;50.084;8.576;2024-02-21T14:57:49;4.70;;;1.57;;
691;SDS011;70475;50.084;8.576;2024-02-21T15:00:16;2.73;;;1.70;;
691;SDS011;70475;50.084;8.576;2024-02-21T15:02:46;4.47;;;1.53;;
691;SDS011;70475;50.084;8.576;2024-02-21T15:05:13;1.80;;;1.10;;
691;SDS011;70475;50.084;8.576;2024-02-21T15:07:41;4.20;;;1.60;;
691;SDS011;70475;50.084;8.576;2024-02-21T15:10:09;3.23;;;1.37;;
691;SDS011;70475;50.084;8.576;2024-02-21T15:12:37;2.23;;;1.20;;
691;SDS011;70475;50.084;8.576;2024-02-21T15:15:06;1.93;;;1.10;;
691;SDS011;70475;50.084;8.576;2024-02-21T15:17:35;1.70;;;0.87;;
691;SDS011;70475;50.084;8.576;2024-02-21T15:20:05;1.10;;;0.67;;
691;SDS011;70475;50.084;8.576;2024-02-21T15:22:34;7.70;;;1.23;;